Terminal Aerodrome Forecast
Issued by NWS

Home | Current Version | Previous Version | Text Only | Print | Product List | Glossary On
Versions: 1 2 3 4 5 6 7 8 9 10 11 12 13 14 15 16 17 18 19 20 21 22 23 24
000
FTUS43 KDMX 020520
TAFOTM
TAF
KOTM 020520Z 0206/0306 35005KT 6SM BR SKC
     FM020900 00000KT 3SM BR SCT004
      TEMPO 0210/0212 1/2SM FG SCT001
     FM021300 VRB03KT P6SM SKC
     FM021700 16003KT P6SM SCT045=

USA.gov is the U.S. government's official web portal to all federal, state and local government web resources and services.